sensor_id;sensor_type;location;lat;lon;timestamp;P1;durP1;ratioP1;P2;durP2;ratioP2
48042;SDS011;33988;47.992;8.820;2023-03-14T00:01:13;1.02;;;0.38;;
48042;SDS011;33988;47.992;8.820;2023-03-14T00:03:46;0.30;;;0.30;;
48042;SDS011;33988;47.992;8.820;2023-03-14T00:06:16;0.30;;;0.30;;
48042;SDS011;33988;47.992;8.820;2023-03-14T00:08:44;0.40;;;0.30;;
48042;SDS011;33988;47.992;8.820;2023-03-14T00:11:16;0.50;;;0.30;;
48042;SDS011;33988;47.992;8.820;2023-03-14T00:13:49;0.32;;;0.30;;
48042;SDS011;33988;47.992;8.820;2023-03-14T00:16:16;0.20;;;0.20;;
48042;SDS011;33988;47.992;8.820;2023-03-14T00:18:44;0.38;;;0.38;;
48042;SDS011;33988;47.992;8.820;2023-03-14T00:21:11;0.20;;;0.20;;
48042;SDS011;33988;47.992;8.820;2023-03-14T00:23:39;1.40;;;0.50;;
48042;SDS011;33988;47.992;8.820;2023-03-14T00:26:08;0.47;;;0.40;;
48042;SDS011;33988;47.992;8.820;2023-03-14T00:28:38;0.83;;;0.30;;
48042;SDS011;33988;47.992;8.820;2023-03-14T00:31:07;0.20;;;0.20;;
48042;SDS011;33988;47.992;8.820;2023-03-14T00:33:38;0.43;;;0.38;;
48042;SDS011;33988;47.992;8.820;2023-03-14T00:36:06;0.93;;;0.52;;
48042;SDS011;33988;47.992;8.820;2023-03-14T00:38:37;1.20;;;0.32;;
48042;SDS011;33988;47.992;8.820;2023-03-14T00:41:09;0.50;;;0.50;;
48042;SDS011;33988;47.992;8.820;2023-03-14T00:43:42;0.28;;;0.28;;
48042;SDS011;33988;47.992;8.820;2023-03-14T00:46:10;0.30;;;0.30;;
48042;SDS011;33988;47.992;8.820;2023-03-14T00:48:38;0.43;;;0.40;;
48042;SDS011;33988;47.992;8.820;2023-03-14T00:51:05;0.38;;;0.38;;
48042;SDS011;33988;47.992;8.820;2023-03-14T00:53:35;2.88;;;1.50;;
48042;SDS011;33988;47.992;8.820;2023-03-14T00:56:05;3.42;;;1.20;;
48042;SDS011;33988;47.992;8.820;2023-03-14T00:58:35;1.13;;;1.02;;
48042;SDS011;33988;47.992;8.820;2023-03-14T01:01:09;1.73;;;1.08;;
48042;SDS011;33988;47.992;8.820;2023-03-14T01:03:45;0.55;;;0.50;;
48042;SDS011;33988;47.992;8.820;2023-03-14T01:06:21;1.40;;;1.08;;
48042;SDS011;33988;47.992;8.820;2023-03-14T01:08:54;0.75;;;0.45;;
48042;SDS011;33988;47.992;8.820;2023-03-14T01:11:28;0.40;;;0.40;;
48042;SDS011;33988;47.992;8.820;2023-03-14T01:13:58;4.00;;;2.25;;
48042;SDS011;33988;47.992;8.820;2023-03-14T01:16:29;0.30;;;0.30;;
48042;SDS011;33988;47.992;8.820;2023-03-14T01:18:59;1.35;;;0.90;;
48042;SDS011;33988;47.992;8.820;2023-03-14T01:21:30;1.17;;;0.40;;
48042;SDS011;33988;47.992;8.820;2023-03-14T01:24:00;2.13;;;0.43;;
48042;SDS011;33988;47.992;8.820;2023-03-14T01:26:29;0.93;;;0.70;;
48042;SDS011;33988;47.992;8.820;2023-03-14T01:28:59;0.73;;;0.68;;
48042;SDS011;33988;47.992;8.820;2023-03-14T01:31:26;0.55;;;0.55;;
48042;SDS011;33988;47.992;8.820;2023-03-14T01:33:54;0.80;;;0.63;;
48042;SDS011;33988;47.992;8.820;2023-03-14T01:36:20;0.50;;;0.50;;
48042;SDS011;33988;47.992;8.820;2023-03-14T01:38:50;0.40;;;0.40;;
48042;SDS011;33988;47.992;8.820;2023-03-14T01:41:22;2.65;;;0.70;;
48042;SDS011;33988;47.992;8.820;2023-03-14T01:43:51;0.80;;;0.60;;
48042;SDS011;33988;47.992;8.820;2023-03-14T01:46:32;3.40;;;1.77;;
48042;SDS011;33988;47.992;8.820;2023-03-14T01:57:16;3.30;;;0.60;;
48042;SDS011;33988;47.992;8.820;2023-03-14T01:59:49;0.30;;;0.30;;
48042;SDS011;33988;47.992;8.820;2023-03-14T02:02:24;1.40;;;0.38;;
48042;SDS011;33988;47.992;8.820;2023-03-14T02:04:54;0.85;;;0.40;;
48042;SDS011;33988;47.992;8.820;2023-03-14T02:10:07;0.47;;;0.40;;
48042;SDS011;33988;47.992;8.820;2023-03-14T02:12:35;0.32;;;0.30;;
48042;SDS011;33988;47.992;8.820;2023-03-14T02:15:03;0.60;;;0.50;;
48042;SDS011;33988;47.992;8.820;2023-03-14T02:17:33;0.80;;;0.50;;
48042;SDS011;33988;47.992;8.820;2023-03-14T02:22:52;2.30;;;0.93;;
48042;SDS011;33988;47.992;8.820;2023-03-14T02:28:18;0.90;;;0.60;;
48042;SDS011;33988;47.992;8.820;2023-03-14T02:30:45;0.57;;;0.50;;
48042;SDS011;33988;47.992;8.820;2023-03-14T02:33:18;0.68;;;0.30;;
48042;SDS011;33988;47.992;8.820;2023-03-14T02:35:51;0.30;;;0.30;;
48042;SDS011;33988;47.992;8.820;2023-03-14T02:41:34;0.20;;;0.20;;
48042;SDS011;33988;47.992;8.820;2023-03-14T02:44:01;0.30;;;0.30;;
48042;SDS011;33988;47.992;8.820;2023-03-14T02:46:28;0.25;;;0.20;;
48042;SDS011;33988;47.992;8.820;2023-03-14T02:49:02;0.55;;;0.30;;
48042;SDS011;33988;47.992;8.820;2023-03-14T02:51:33;0.17;;;0.17;;
48042;SDS011;33988;47.992;8.820;2023-03-14T02:54:04;0.23;;;0.20;;
48042;SDS011;33988;47.992;8.820;2023-03-14T02:56:34;0.15;;;0.15;;
48042;SDS011;33988;47.992;8.820;2023-03-14T02:59:04;0.38;;;0.30;;
48042;SDS011;33988;47.992;8.820;2023-03-14T03:01:34;0.77;;;0.30;;
48042;SDS011;33988;47.992;8.820;2023-03-14T03:04:03;0.30;;;0.30;;
48042;SDS011;33988;47.992;8.820;2023-03-14T03:06:31;0.20;;;0.20;;
48042;SDS011;33988;47.992;8.820;2023-03-14T03:08:57;0.20;;;0.20;;
48042;SDS011;33988;47.992;8.820;2023-03-14T03:11:24;0.20;;;0.20;;
48042;SDS011;33988;47.992;8.820;2023-03-14T03:13:51;0.75;;;0.10;;
48042;SDS011;33988;47.992;8.820;2023-03-14T03:16:20;0.20;;;0.20;;
48042;SDS011;33988;47.992;8.820;2023-03-14T03:18:49;2.22;;;0.20;;
48042;SDS011;33988;47.992;8.820;2023-03-14T03:21:16;0.20;;;0.20;;
48042;SDS011;33988;47.992;8.820;2023-03-14T03:23:43;0.60;;;0.30;;
48042;SDS011;33988;47.992;8.820;2023-03-14T03:26:10;0.65;;;0.30;;
48042;SDS011;33988;47.992;8.820;2023-03-14T03:28:37;0.30;;;0.20;;
48042;SDS011;33988;47.992;8.820;2023-03-14T03:31:08;0.17;;;0.15;;
48042;SDS011;33988;47.992;8.820;2023-03-14T03:33:39;0.20;;;0.20;;
48042;SDS011;33988;47.992;8.820;2023-03-14T03:36:07;0.20;;;0.20;;
48042;SDS011;33988;47.992;8.820;2023-03-14T03:38:35;0.30;;;0.30;;
48042;SDS011;33988;47.992;8.820;2023-03-14T03:41:05;0.20;;;0.20;;
48042;SDS011;33988;47.992;8.820;2023-03-14T03:43:33;1.00;;;0.32;;
48042;SDS011;33988;47.992;8.820;2023-03-14T03:46:04;0.45;;;0.30;;
48042;SDS011;33988;47.992;8.820;2023-03-14T03:48:32;0.20;;;0.20;;
48042;SDS011;33988;47.992;8.820;2023-03-14T03:51:00;2.13;;;0.40;;
48042;SDS011;33988;47.992;8.820;2023-03-14T03:53:27;0.43;;;0.38;;
48042;SDS011;33988;47.992;8.820;2023-03-14T03:55:59;5.68;;;2.30;;
48042;SDS011;33988;47.992;8.820;2023-03-14T03:58:31;9.43;;;3.95;;
48042;SDS011;33988;47.992;8.820;2023-03-14T04:01:05;6.63;;;3.03;;
48042;SDS011;33988;47.992;8.820;2023-03-14T04:03:33;2.90;;;1.30;;
48042;SDS011;33988;47.992;8.820;2023-03-14T04:06:02;1.83;;;0.80;;
48042;SDS011;33988;47.992;8.820;2023-03-14T04:08:32;0.50;;;0.50;;
48042;SDS011;33988;47.992;8.820;2023-03-14T04:11:00;0.77;;;0.70;;
48042;SDS011;33988;47.992;8.820;2023-03-14T04:13:28;0.57;;;0.57;;
48042;SDS011;33988;47.992;8.820;2023-03-14T04:15:55;1.35;;;0.50;;
48042;SDS011;33988;47.992;8.820;2023-03-14T04:18:26;1.63;;;0.52;;
48042;SDS011;33988;47.992;8.820;2023-03-14T04:20:56;0.40;;;0.40;;
48042;SDS011;33988;47.992;8.820;2023-03-14T04:23:25;0.43;;;0.22;;
48042;SDS011;33988;47.992;8.820;2023-03-14T04:25:52;0.30;;;0.30;;
48042;SDS011;33988;47.992;8.820;2023-03-14T04:28:19;4.15;;;0.40;;
48042;SDS011;33988;47.992;8.820;2023-03-14T04:30:46;0.52;;;0.40;;
48042;SDS011;33988;47.992;8.820;2023-03-14T04:33:16;0.40;;;0.30;;
48042;SDS011;33988;47.992;8.820;2023-03-14T04:35:45;0.57;;;0.30;;
48042;SDS011;33988;47.992;8.820;2023-03-14T04:38:13;1.48;;;0.30;;
48042;SDS011;33988;47.992;8.820;2023-03-14T04:40:40;1.08;;;0.40;;
48042;SDS011;33988;47.992;8.820;2023-03-14T04:43:12;0.30;;;0.30;;
48042;SDS011;33988;47.992;8.820;2023-03-14T04:45:42;0.20;;;0.20;;
48042;SDS011;33988;47.992;8.820;2023-03-14T04:48:10;0.70;;;0.45;;
48042;SDS011;33988;47.992;8.820;2023-03-14T04:50:36;0.30;;;0.30;;
48042;SDS011;33988;47.992;8.820;2023-03-14T04:53:03;0.88;;;0.47;;
48042;SDS011;33988;47.992;8.820;2023-03-14T04:55:35;0.77;;;0.40;;
48042;SDS011;33988;47.992;8.820;2023-03-14T04:58:07;0.52;;;0.30;;
48042;SDS011;33988;47.992;8.820;2023-03-14T05:00:36;0.28;;;0.28;;
48042;SDS011;33988;47.992;8.820;2023-03-14T05:03:05;0.50;;;0.32;;
48042;SDS011;33988;47.992;8.820;2023-03-14T05:05:34;1.35;;;0.30;;
48042;SDS011;33988;47.992;8.820;2023-03-14T05:08:03;1.30;;;0.32;;
48042;SDS011;33988;47.992;8.820;2023-03-14T05:10:30;0.50;;;0.35;;
48042;SDS011;33988;47.992;8.820;2023-03-14T05:13:00;0.60;;;0.47;;
48042;SDS011;33988;47.992;8.820;2023-03-14T05:15:29;0.60;;;0.55;;
48042;SDS011;33988;47.992;8.820;2023-03-14T05:20:25;0.77;;;0.50;;
48042;SDS011;33988;47.992;8.820;2023-03-14T05:25:23;0.75;;;0.40;;
48042;SDS011;33988;47.992;8.820;2023-03-14T05:27:52;0.75;;;0.50;;
48042;SDS011;33988;47.992;8.820;2023-03-14T05:30:22;0.80;;;0.43;;
48042;SDS011;33988;47.992;8.820;2023-03-14T05:32:49;0.20;;;0.20;;
48042;SDS011;33988;47.992;8.820;2023-03-14T05:35:21;0.50;;;0.40;;
48042;SDS011;33988;47.992;8.820;2023-03-14T05:37:48;1.83;;;0.70;;
48042;SDS011;33988;47.992;8.820;2023-03-14T05:40:15;0.22;;;0.22;;
48042;SDS011;33988;47.992;8.820;2023-03-14T05:42:42;0.40;;;0.40;;
48042;SDS011;33988;47.992;8.820;2023-03-14T05:45:09;0.52;;;0.52;;
48042;SDS011;33988;47.992;8.820;2023-03-14T05:47:36;1.00;;;0.80;;
48042;SDS011;33988;47.992;8.820;2023-03-14T05:50:03;1.25;;;0.60;;
48042;SDS011;33988;47.992;8.820;2023-03-14T05:52:31;0.40;;;0.30;;
48042;SDS011;33988;47.992;8.820;2023-03-14T05:54:58;0.30;;;0.30;;
48042;SDS011;33988;47.992;8.820;2023-03-14T05:57:25;0.52;;;0.50;;
48042;SDS011;33988;47.992;8.820;2023-03-14T05:59:54;0.85;;;0.35;;
48042;SDS011;33988;47.992;8.820;2023-03-14T06:02:21;0.65;;;0.50;;
48042;SDS011;33988;47.992;8.820;2023-03-14T06:04:48;0.50;;;0.40;;
48042;SDS011;33988;47.992;8.820;2023-03-14T06:07:15;0.55;;;0.55;;
48042;SDS011;33988;47.992;8.820;2023-03-14T06:09:42;0.65;;;0.55;;
48042;SDS011;33988;47.992;8.820;2023-03-14T06:12:11;0.40;;;0.40;;
48042;SDS011;33988;47.992;8.820;2023-03-14T06:14:38;0.68;;;0.50;;
48042;SDS011;33988;47.992;8.820;2023-03-14T06:17:05;0.95;;;0.82;;
48042;SDS011;33988;47.992;8.820;2023-03-14T06:19:32;1.08;;;0.50;;
48042;SDS011;33988;47.992;8.820;2023-03-14T06:22:01;0.73;;;0.50;;
48042;SDS011;33988;47.992;8.820;2023-03-14T06:24:28;0.50;;;0.43;;
48042;SDS011;33988;47.992;8.820;2023-03-14T06:26:57;0.90;;;0.70;;
48042;SDS011;33988;47.992;8.820;2023-03-14T06:29:24;0.57;;;0.52;;
48042;SDS011;33988;47.992;8.820;2023-03-14T06:31:53;1.48;;;0.55;;
48042;SDS011;33988;47.992;8.820;2023-03-14T06:34:26;0.82;;;0.70;;
48042;SDS011;33988;47.992;8.820;2023-03-14T06:36:53;2.63;;;0.90;;
48042;SDS011;33988;47.992;8.820;2023-03-14T06:39:19;1.20;;;0.60;;
48042;SDS011;33988;47.992;8.820;2023-03-14T06:41:49;0.70;;;0.70;;
48042;SDS011;33988;47.992;8.820;2023-03-14T06:44:15;0.50;;;0.50;;
48042;SDS011;33988;47.992;8.820;2023-03-14T06:46:45;0.50;;;0.40;;
48042;SDS011;33988;47.992;8.820;2023-03-14T06:49:12;0.70;;;0.50;;
48042;SDS011;33988;47.992;8.820;2023-03-14T06:51:39;0.38;;;0.38;;
48042;SDS011;33988;47.992;8.820;2023-03-14T06:54:06;2.15;;;0.60;;
48042;SDS011;33988;47.992;8.820;2023-03-14T06:56:33;0.85;;;0.60;;
48042;SDS011;33988;47.992;8.820;2023-03-14T06:59:00;0.50;;;0.47;;
48042;SDS011;33988;47.992;8.820;2023-03-14T07:01:32;0.63;;;0.63;;
48042;SDS011;33988;47.992;8.820;2023-03-14T07:04:01;0.60;;;0.60;;
48042;SDS011;33988;47.992;8.820;2023-03-14T07:06:34;0.60;;;0.50;;
48042;SDS011;33988;47.992;8.820;2023-03-14T07:09:03;1.05;;;0.70;;
48042;SDS011;33988;47.992;8.820;2023-03-14T07:11:35;0.70;;;0.70;;
48042;SDS011;33988;47.992;8.820;2023-03-14T07:14:02;2.25;;;0.70;;
48042;SDS011;33988;47.992;8.820;2023-03-14T07:16:32;0.60;;;0.52;;
48042;SDS011;33988;47.992;8.820;2023-03-14T07:18:59;0.38;;;0.38;;
48042;SDS011;33988;47.992;8.820;2023-03-14T07:21:27;0.40;;;0.40;;
48042;SDS011;33988;47.992;8.820;2023-03-14T07:23:58;0.40;;;0.40;;
48042;SDS011;33988;47.992;8.820;2023-03-14T07:26:24;0.50;;;0.40;;
48042;SDS011;33988;47.992;8.820;2023-03-14T07:28:51;0.47;;;0.30;;
48042;SDS011;33988;47.992;8.820;2023-03-14T07:31:18;0.63;;;0.30;;
48042;SDS011;33988;47.992;8.820;2023-03-14T07:33:47;0.60;;;0.35;;
48042;SDS011;33988;47.992;8.820;2023-03-14T07:36:15;0.55;;;0.32;;
48042;SDS011;33988;47.992;8.820;2023-03-14T07:38:44;0.40;;;0.40;;
48042;SDS011;33988;47.992;8.820;2023-03-14T07:41:14;0.30;;;0.25;;
48042;SDS011;33988;47.992;8.820;2023-03-14T07:43:41;0.30;;;0.30;;
48042;SDS011;33988;47.992;8.820;2023-03-14T07:46:08;0.90;;;0.43;;
48042;SDS011;33988;47.992;8.820;2023-03-14T07:48:35;0.52;;;0.30;;
48042;SDS011;33988;47.992;8.820;2023-03-14T07:51:02;0.20;;;0.20;;
48042;SDS011;33988;47.992;8.820;2023-03-14T07:53:34;0.40;;;0.30;;
48042;SDS011;33988;47.992;8.820;2023-03-14T07:56:04;0.93;;;0.40;;
48042;SDS011;33988;47.992;8.820;2023-03-14T07:58:36;0.75;;;0.43;;
48042;SDS011;33988;47.992;8.820;2023-03-14T08:01:06;0.30;;;0.30;;
48042;SDS011;33988;47.992;8.820;2023-03-14T08:03:33;0.28;;;0.25;;
48042;SDS011;33988;47.992;8.820;2023-03-14T08:06:05;0.22;;;0.20;;
48042;SDS011;33988;47.992;8.820;2023-03-14T08:08:35;0.70;;;0.40;;
48042;SDS011;33988;47.992;8.820;2023-03-14T08:11:02;0.30;;;0.30;;
48042;SDS011;33988;47.992;8.820;2023-03-14T08:13:35;0.80;;;0.40;;
48042;SDS011;33988;47.992;8.820;2023-03-14T08:16:04;2.35;;;0.50;;
48042;SDS011;33988;47.992;8.820;2023-03-14T08:18:31;3.08;;;0.50;;
48042;SDS011;33988;47.992;8.820;2023-03-14T08:20:58;0.45;;;0.35;;
48042;SDS011;33988;47.992;8.820;2023-03-14T08:23:25;0.52;;;0.50;;
48042;SDS011;33988;47.992;8.820;2023-03-14T08:25:55;0.45;;;0.30;;
48042;SDS011;33988;47.992;8.820;2023-03-14T08:28:28;0.30;;;0.30;;
48042;SDS011;33988;47.992;8.820;2023-03-14T08:30:59;0.32;;;0.30;;
48042;SDS011;33988;47.992;8.820;2023-03-14T08:33:28;2.00;;;0.40;;
48042;SDS011;33988;47.992;8.820;2023-03-14T08:35:56;0.60;;;0.50;;
48042;SDS011;33988;47.992;8.820;2023-03-14T08:38:28;0.30;;;0.30;;
48042;SDS011;33988;47.992;8.820;2023-03-14T08:40:56;1.48;;;0.40;;
48042;SDS011;33988;47.992;8.820;2023-03-14T08:43:30;0.22;;;0.22;;
48042;SDS011;33988;47.992;8.820;2023-03-14T08:46:00;0.60;;;0.20;;
48042;SDS011;33988;47.992;8.820;2023-03-14T08:48:27;0.40;;;0.30;;
48042;SDS011;33988;47.992;8.820;2023-03-14T08:51:03;0.32;;;0.30;;
48042;SDS011;33988;47.992;8.820;2023-03-14T08:53:40;1.15;;;0.30;;
48042;SDS011;33988;47.992;8.820;2023-03-14T08:56:08;2.85;;;0.60;;
48042;SDS011;33988;47.992;8.820;2023-03-14T08:58:36;0.20;;;0.20;;
48042;SDS011;33988;47.992;8.820;2023-03-14T09:01:07;0.30;;;0.30;;
48042;SDS011;33988;47.992;8.820;2023-03-14T09:03:36;0.20;;;0.20;;
48042;SDS011;33988;47.992;8.820;2023-03-14T09:06:07;0.38;;;0.38;;
48042;SDS011;33988;47.992;8.820;2023-03-14T09:08:36;0.30;;;0.20;;
48042;SDS011;33988;47.992;8.820;2023-03-14T09:11:08;0.85;;;0.40;;
48042;SDS011;33988;47.992;8.820;2023-03-14T09:13:38;0.38;;;0.30;;
48042;SDS011;33988;47.992;8.820;2023-03-14T09:16:05;1.23;;;0.40;;
48042;SDS011;33988;47.992;8.820;2023-03-14T09:18:33;1.42;;;0.43;;
48042;SDS011;33988;47.992;8.820;2023-03-14T09:21:00;0.52;;;0.40;;
48042;SDS011;33988;47.992;8.820;2023-03-14T09:23:30;0.35;;;0.35;;
48042;SDS011;33988;47.992;8.820;2023-03-14T09:26:02;1.02;;;0.30;;
48042;SDS011;33988;47.992;8.820;2023-03-14T09:28:29;0.35;;;0.30;;
48042;SDS011;33988;47.992;8.820;2023-03-14T09:30:56;0.40;;;0.40;;
48042;SDS011;33988;47.992;8.820;2023-03-14T09:33:26;0.88;;;0.40;;
48042;SDS011;33988;47.992;8.820;2023-03-14T09:35:57;0.40;;;0.40;;
48042;SDS011;33988;47.992;8.820;2023-03-14T09:38:27;0.55;;;0.38;;
48042;SDS011;33988;47.992;8.820;2023-03-14T09:40:54;0.30;;;0.30;;
48042;SDS011;33988;47.992;8.820;2023-03-14T09:43:29;1.58;;;0.47;;
48042;SDS011;33988;47.992;8.820;2023-03-14T09:45:58;1.35;;;0.50;;
48042;SDS011;33988;47.992;8.820;2023-03-14T09:48:29;0.80;;;0.70;;
48042;SDS011;33988;47.992;8.820;2023-03-14T09:50:59;0.27;;;0.27;;
48042;SDS011;33988;47.992;8.820;2023-03-14T09:56:29;0.30;;;0.20;;
48042;SDS011;33988;47.992;8.820;2023-03-14T09:58:59;0.17;;;0.17;;
48042;SDS011;33988;47.992;8.820;2023-03-14T10:01:31;0.17;;;0.17;;
48042;SDS011;33988;47.992;8.820;2023-03-14T10:04:06;0.22;;;0.20;;
48042;SDS011;33988;47.992;8.820;2023-03-14T10:06:47;0.22;;;0.22;;
48042;SDS011;33988;47.992;8.820;2023-03-14T10:09:17;0.20;;;0.20;;
48042;SDS011;33988;47.992;8.820;2023-03-14T10:11:57;0.20;;;0.20;;
48042;SDS011;33988;47.992;8.820;2023-03-14T10:14:35;1.75;;;0.30;;
48042;SDS011;33988;47.992;8.820;2023-03-14T10:17:11;0.52;;;0.40;;
48042;SDS011;33988;47.992;8.820;2023-03-14T10:19:55;0.20;;;0.20;;
48042;SDS011;33988;47.992;8.820;2023-03-14T10:22:26;0.22;;;0.22;;
48042;SDS011;33988;47.992;8.820;2023-03-14T10:25:00;0.40;;;0.22;;
48042;SDS011;33988;47.992;8.820;2023-03-14T10:27:32;0.25;;;0.20;;
48042;SDS011;33988;47.992;8.820;2023-03-14T10:30:05;0.32;;;0.32;;
48042;SDS011;33988;47.992;8.820;2023-03-14T10:32:42;0.25;;;0.20;;
48042;SDS011;33988;47.992;8.820;2023-03-14T10:37:50;0.28;;;0.28;;
48042;SDS011;33988;47.992;8.820;2023-03-14T10:40:37;0.22;;;0.22;;
48042;SDS011;33988;47.992;8.820;2023-03-14T10:43:11;0.10;;;0.10;;
48042;SDS011;33988;47.992;8.820;2023-03-14T10:45:43;0.30;;;0.20;;
48042;SDS011;33988;47.992;8.820;2023-03-14T10:51:07;0.10;;;0.10;;
48042;SDS011;33988;47.992;8.820;2023-03-14T10:59:11;0.60;;;0.20;;
48042;SDS011;33988;47.992;8.820;2023-03-14T11:08:01;0.90;;;0.52;;
48042;SDS011;33988;47.992;8.820;2023-03-14T11:10:37;0.30;;;0.30;;
48042;SDS011;33988;47.992;8.820;2023-03-14T11:16:48;0.30;;;0.30;;
48042;SDS011;33988;47.992;8.820;2023-03-14T11:25:52;1.23;;;0.90;;
48042;SDS011;33988;47.992;8.820;2023-03-14T11:31:19;0.55;;;0.55;;
48042;SDS011;33988;47.992;8.820;2023-03-14T11:36:29;0.40;;;0.40;;
48042;SDS011;33988;47.992;8.820;2023-03-14T11:39:12;0.40;;;0.40;;
48042;SDS011;33988;47.992;8.820;2023-03-14T11:41:45;2.25;;;0.40;;
48042;SDS011;33988;47.992;8.820;2023-03-14T11:44:36;0.20;;;0.20;;
48042;SDS011;33988;47.992;8.820;2023-03-14T11:47:10;0.40;;;0.30;;
48042;SDS011;33988;47.992;8.820;2023-03-14T11:52:21;0.30;;;0.30;;
48042;SDS011;33988;47.992;8.820;2023-03-14T11:54:58;2.50;;;0.30;;
48042;SDS011;33988;47.992;8.820;2023-03-14T11:57:34;0.20;;;0.20;;
48042;SDS011;33988;47.992;8.820;2023-03-14T12:00:17;0.20;;;0.20;;
48042;SDS011;33988;47.992;8.820;2023-03-14T12:06:01;0.20;;;0.20;;
48042;SDS011;33988;47.992;8.820;2023-03-14T12:08:49;0.30;;;0.30;;
48042;SDS011;33988;47.992;8.820;2023-03-14T12:11:41;0.57;;;0.50;;
48042;SDS011;33988;47.992;8.820;2023-03-14T12:14:26;0.55;;;0.40;;
48042;SDS011;33988;47.992;8.820;2023-03-14T12:19:43;0.30;;;0.30;;
48042;SDS011;33988;47.992;8.820;2023-03-14T12:22:29;0.88;;;0.70;;
48042;SDS011;33988;47.992;8.820;2023-03-14T12:25:00;0.20;;;0.20;;
48042;SDS011;33988;47.992;8.820;2023-03-14T12:27:38;0.38;;;0.30;;
48042;SDS011;33988;47.992;8.820;2023-03-14T12:46:25;0.20;;;0.20;;
48042;SDS011;33988;47.992;8.820;2023-03-14T12:48:55;0.30;;;0.30;;
48042;SDS011;33988;47.992;8.820;2023-03-14T12:59:54;0.40;;;0.40;;
48042;SDS011;33988;47.992;8.820;2023-03-14T13:02:36;0.30;;;0.30;;
48042;SDS011;33988;47.992;8.820;2023-03-14T13:10:17;0.30;;;0.30;;
48042;SDS011;33988;47.992;8.820;2023-03-14T13:18:12;0.20;;;0.20;;
48042;SDS011;33988;47.992;8.820;2023-03-14T13:20:55;0.68;;;0.30;;
48042;SDS011;33988;47.992;8.820;2023-03-14T13:23:30;0.45;;;0.45;;
48042;SDS011;33988;47.992;8.820;2023-03-14T13:26:02;0.32;;;0.30;;
48042;SDS011;33988;47.992;8.820;2023-03-14T13:28:32;0.43;;;0.43;;
48042;SDS011;33988;47.992;8.820;2023-03-14T13:33:32;0.85;;;0.40;;
48042;SDS011;33988;47.992;8.820;2023-03-14T13:36:02;0.40;;;0.40;;
48042;SDS011;33988;47.992;8.820;2023-03-14T13:38:34;0.57;;;0.30;;
48042;SDS011;33988;47.992;8.820;2023-03-14T13:41:05;0.30;;;0.30;;
48042;SDS011;33988;47.992;8.820;2023-03-14T13:43:36;1.42;;;0.40;;
48042;SDS011;33988;47.992;8.820;2023-03-14T13:46:12;0.90;;;0.43;;
48042;SDS011;33988;47.992;8.820;2023-03-14T13:48:43;0.60;;;0.50;;
48042;SDS011;33988;47.992;8.820;2023-03-14T13:51:16;0.80;;;0.50;;
48042;SDS011;33988;47.992;8.820;2023-03-14T13:56:15;1.05;;;0.60;;
48042;SDS011;33988;47.992;8.820;2023-03-14T13:58:51;0.60;;;0.60;;
48042;SDS011;33988;47.992;8.820;2023-03-14T14:04:05;0.40;;;0.40;;
48042;SDS011;33988;47.992;8.820;2023-03-14T14:06:38;0.35;;;0.35;;
48042;SDS011;33988;47.992;8.820;2023-03-14T14:09:35;1.60;;;0.55;;
48042;SDS011;33988;47.992;8.820;2023-03-14T14:12:10;0.50;;;0.43;;
48042;SDS011;33988;47.992;8.820;2023-03-14T14:17:24;0.88;;;0.30;;
48042;SDS011;33988;47.992;8.820;2023-03-14T14:20:08;1.85;;;0.50;;
48042;SDS011;33988;47.992;8.820;2023-03-14T14:23:02;0.95;;;0.50;;
48042;SDS011;33988;47.992;8.820;2023-03-14T14:25:58;1.27;;;0.50;;
48042;SDS011;33988;47.992;8.820;2023-03-14T14:28:36;1.00;;;0.50;;
48042;SDS011;33988;47.992;8.820;2023-03-14T14:31:06;0.55;;;0.43;;
48042;SDS011;33988;47.992;8.820;2023-03-14T14:33:55;1.38;;;0.70;;
48042;SDS011;33988;47.992;8.820;2023-03-14T14:36:28;1.50;;;0.40;;
48042;SDS011;33988;47.992;8.820;2023-03-14T14:41:52;1.50;;;0.53;;
48042;SDS011;33988;47.992;8.820;2023-03-14T14:44:33;0.55;;;0.55;;
48042;SDS011;33988;47.992;8.820;2023-03-14T14:47:06;1.67;;;0.70;;
48042;SDS011;33988;47.992;8.820;2023-03-14T14:49:39;0.80;;;0.50;;
48042;SDS011;33988;47.992;8.820;2023-03-14T14:52:11;0.40;;;0.40;;
48042;SDS011;33988;47.992;8.820;2023-03-14T14:54:59;0.50;;;0.50;;
48042;SDS011;33988;47.992;8.820;2023-03-14T14:57:38;1.38;;;0.60;;
48042;SDS011;33988;47.992;8.820;2023-03-14T15:00:09;1.30;;;0.45;;
48042;SDS011;33988;47.992;8.820;2023-03-14T15:02:49;2.42;;;0.82;;
48042;SDS011;33988;47.992;8.820;2023-03-14T15:05:27;1.88;;;0.60;;
48042;SDS011;33988;47.992;8.820;2023-03-14T15:07:57;2.90;;;0.65;;
48042;SDS011;33988;47.992;8.820;2023-03-14T15:10:24;1.05;;;0.60;;
48042;SDS011;33988;47.992;8.820;2023-03-14T15:12:51;1.73;;;0.82;;
48042;SDS011;33988;47.992;8.820;2023-03-14T15:15:19;0.60;;;0.60;;
48042;SDS011;33988;47.992;8.820;2023-03-14T15:17:49;1.70;;;0.70;;
48042;SDS011;33988;47.992;8.820;2023-03-14T15:20:18;0.70;;;0.60;;
48042;SDS011;33988;47.992;8.820;2023-03-14T15:22:46;1.80;;;0.77;;
48042;SDS011;33988;47.992;8.820;2023-03-14T15:25:13;1.25;;;0.60;;
48042;SDS011;33988;47.992;8.820;2023-03-14T15:28:00;1.33;;;0.80;;
48042;SDS011;33988;47.992;8.820;2023-03-14T15:30:39;1.17;;;0.60;;
48042;SDS011;33988;47.992;8.820;2023-03-14T15:33:08;0.50;;;0.40;;
48042;SDS011;33988;47.992;8.820;2023-03-14T15:35:36;2.45;;;0.75;;
48042;SDS011;33988;47.992;8.820;2023-03-14T15:38:03;0.70;;;0.52;;
48042;SDS011;33988;47.992;8.820;2023-03-14T15:40:30;2.42;;;0.80;;
48042;SDS011;33988;47.992;8.820;2023-03-14T15:42:57;1.30;;;0.80;;
48042;SDS011;33988;47.992;8.820;2023-03-14T15:45:27;0.90;;;0.57;;
48042;SDS011;33988;47.992;8.820;2023-03-14T15:47:54;1.52;;;0.60;;
48042;SDS011;33988;47.992;8.820;2023-03-14T15:50:21;2.10;;;1.35;;
48042;SDS011;33988;47.992;8.820;2023-03-14T15:52:48;1.75;;;1.00;;
48042;SDS011;33988;47.992;8.820;2023-03-14T15:55:15;0.88;;;0.65;;
48042;SDS011;33988;47.992;8.820;2023-03-14T15:57:45;2.10;;;1.08;;
48042;SDS011;33988;47.992;8.820;2023-03-14T16:00:13;1.88;;;1.02;;
48042;SDS011;33988;47.992;8.820;2023-03-14T16:02:48;1.05;;;0.75;;
48042;SDS011;33988;47.992;8.820;2023-03-14T16:05:15;0.80;;;0.52;;
48042;SDS011;33988;47.992;8.820;2023-03-14T16:07:45;1.40;;;0.70;;
48042;SDS011;33988;47.992;8.820;2023-03-14T16:10:13;2.55;;;0.75;;
48042;SDS011;33988;47.992;8.820;2023-03-14T16:12:46;1.88;;;1.02;;
48042;SDS011;33988;47.992;8.820;2023-03-14T16:15:13;4.65;;;1.30;;
48042;SDS011;33988;47.992;8.820;2023-03-14T16:20:15;1.17;;;0.60;;
48042;SDS011;33988;47.992;8.820;2023-03-14T16:22:45;1.83;;;0.90;;
48042;SDS011;33988;47.992;8.820;2023-03-14T16:25:13;2.85;;;1.00;;
48042;SDS011;33988;47.992;8.820;2023-03-14T16:27:41;1.67;;;0.75;;
48042;SDS011;33988;47.992;8.820;2023-03-14T16:30:10;3.00;;;1.20;;
48042;SDS011;33988;47.992;8.820;2023-03-14T16:32:39;2.45;;;1.17;;
48042;SDS011;33988;47.992;8.820;2023-03-14T16:35:06;3.90;;;0.90;;
48042;SDS011;33988;47.992;8.820;2023-03-14T16:37:33;1.98;;;0.80;;
48042;SDS011;33988;47.992;8.820;2023-03-14T16:40:00;0.70;;;0.70;;
48042;SDS011;33988;47.992;8.820;2023-03-14T16:42:42;1.92;;;0.98;;
48042;SDS011;33988;47.992;8.820;2023-03-14T16:45:29;3.67;;;0.95;;
48042;SDS011;33988;47.992;8.820;2023-03-14T16:47:56;1.13;;;0.70;;
48042;SDS011;33988;47.992;8.820;2023-03-14T16:50:23;1.45;;;0.98;;
48042;SDS011;33988;47.992;8.820;2023-03-14T16:52:50;4.75;;;1.23;;
48042;SDS011;33988;47.992;8.820;2023-03-14T16:55:17;7.47;;;1.40;;
48042;SDS011;33988;47.992;8.820;2023-03-14T16:57:46;1.70;;;1.30;;
48042;SDS011;33988;47.992;8.820;2023-03-14T17:00:13;4.38;;;1.30;;
48042;SDS011;33988;47.992;8.820;2023-03-14T17:02:41;1.65;;;1.00;;
48042;SDS011;33988;47.992;8.820;2023-03-14T17:05:08;1.75;;;0.95;;
48042;SDS011;33988;47.992;8.820;2023-03-14T17:07:35;2.40;;;1.00;;
48042;SDS011;33988;47.992;8.820;2023-03-14T17:10:01;1.35;;;0.82;;